Hollister Municipal Airport


Codes: CVH/HLI
Name: Hollister Municipal Airport
City: Hollister
Country: United States
Elevation: 230 ft.
Website:
Wikipedia:

Photos at Hollister Municipal Airport


   Photos courtesy of SpottingLog. You can add your own sightings and photos by signing up for a free trial today.



No photos found.

Weather at Hollister Municipal Airport


Time (UTC)DescriptionTempratureWindCloud coverageVisibilityPressureHumidity
23-May-2024 21:00Clear Sky22°C9 mph, SW0%10000m1011hPa44%
24-May-2024 00:00Clear Sky20°C9 mph, SW0%10000m1011hPa47%
24-May-2024 03:00Broken Clouds11°C4 mph, SW57%10000m1013hPa81%
24-May-2024 06:00Broken Clouds8°C4 mph, SW66%10000m1014hPa100%
24-May-2024 09:00Overcast Clouds8°C4 mph, SW97%10000m1014hPa97%
24-May-2024 12:00Overcast Clouds9°C7 mph, SW100%10000m1013hPa87%
24-May-2024 15:00Overcast Clouds11°C9 mph, SW100%10000m1014hPa79%
24-May-2024 18:00Overcast Clouds16°C11 mph, SW86%10000m1013hPa55%
24-May-2024 21:00Clear Sky18°C11 mph, SW4%10000m1013hPa52%
25-May-2024 00:00Clear Sky17°C13 mph, SW10%10000m1012hPa61%
25-May-2024 03:00Broken Clouds12°C7 mph, SW59%10000m1013hPa90%
25-May-2024 06:00Broken Clouds12°C7 mph, SW81%10000m1014hPa92%
25-May-2024 09:00Overcast Clouds12°C4 mph, SW100%10000m1014hPa93%
25-May-2024 12:00Overcast Clouds11°C4 mph, SW100%10000m1015hPa94%
25-May-2024 15:00Overcast Clouds12°C4 mph, SW99%10000m1016hPa90%
25-May-2024 18:00Overcast Clouds15°C7 mph, SW100%10000m1017hPa71%
25-May-2024 21:00Scattered Clouds20°C9 mph, SW43%10000m1016hPa48%
26-May-2024 00:00Few Clouds17°C9 mph, SW21%10000m1016hPa54%
26-May-2024 03:00Clear Sky10°C4 mph, SW0%10000m1017hPa85%
26-May-2024 06:00Few Clouds8°C2 mph, SW22%10000m1018hPa97%
26-May-2024 09:00Scattered Clouds7°C2 mph, SW40%10000m1018hPa99%
26-May-2024 12:00Scattered Clouds6°C2 mph, SW30%10000m1018hPa100%
26-May-2024 15:00Scattered Clouds11°C2 mph, SW26%10000m1018hPa80%
26-May-2024 18:00Few Clouds19°C4 mph, SW13%10000m1017hPa41%
26-May-2024 21:00Clear Sky22°C9 mph, SW0%10000m1016hPa35%
27-May-2024 00:00Clear Sky19°C7 mph, SW0%10000m1016hPa47%
27-May-2024 03:00Clear Sky11°C4 mph, SW0%10000m1017hPa79%
27-May-2024 06:00Clear Sky8°C2 mph, SW5%10000m1019hPa97%
27-May-2024 09:00Clear Sky7°C2 mph, SW1%10000m1018hPa96%
27-May-2024 12:00Clear Sky7°C2 mph, SW1%10000m1018hPa99%
27-May-2024 15:00Clear Sky12°C2 mph, SW6%10000m1019hPa78%
27-May-2024 18:00Clear Sky21°C7 mph, SW2%10000m1018hPa43%
27-May-2024 21:00Clear Sky23°C9 mph, SW0%10000m1017hPa37%
28-May-2024 00:00Clear Sky19°C7 mph, SW0%10000m1017hPa50%
28-May-2024 03:00Clear Sky12°C4 mph, SW0%10000m1018hPa85%
28-May-2024 06:00Clear Sky8°C2 mph, SW3%10000m1020hPa101%
28-May-2024 09:00Scattered Clouds8°C2 mph, SW37%7759m1019hPa101%
28-May-2024 12:00Scattered Clouds8°C2 mph, SW38%10000m1019hPa100%
28-May-2024 15:00Scattered Clouds12°C2 mph, SW41%10000m1020hPa83%
28-May-2024 18:00Scattered Clouds20°C7 mph, SW36%10000m1019hPa49%